• Join FlightAware (Why Join?)
  • Login
  • US Flag 
01:46AM EDT


 

Airport Tracker/Info


-or-


 

Live Flight TrackerFlight Track Log ✈ JAL139 ✈ 07-May-2013 ✈ RJTT / HND - RJOO / ITM

Flight Track Log - Related Links

Times and Time Zones

All times are in EDT time to prevent confusion due to time zone crossing. See the JAL139 flight status page for this flight to view local times or setup timezone preferences in your user account.

Time Position Orientation Groundspeed Altitude Reporting Facility
EDT Latitude Longitude Course Direction KTS MPH feet Rate Location/Type
06:45AM 35.4927 139.4046 259° West  Level Estimated
06:46AM 35.4726 139.2797 259° West  Level Estimated
06:47AM 35.4523 139.1548 259° West  Level Estimated
06:48AM 35.4325 139.0335 259° West  Level Estimated
06:49AM 35.4126 138.9123 259° West  Level Estimated
06:50AM 35.3925 138.7911 259° West  Level Estimated
06:51AM 35.3723 138.6699 258° West  Level Estimated
06:52AM 35.3521 138.5488 258° West  Level Estimated
06:53AM 35.3316 138.4278 258° West  Level Estimated
06:54AM 35.3111 138.3069 258° West  Level Estimated
06:55AM 35.2905 138.1860 258° West  Level Estimated
06:56AM 35.2697 138.0652 258° West  Level Estimated
06:57AM 35.2488 137.9444 258° West  Level Estimated
06:58AM 35.2278 137.8237 258° West  Level Estimated
06:59AM 35.2067 137.7030 258° West  Level Estimated
07:00AM 35.1854 137.5825 258° West  Level Estimated
07:01AM 35.1641 137.4619 258° West  Level Estimated
07:02AM 35.1426 137.3415 258° West  Level Estimated
07:03AM 35.1209 137.2211 258° West  Level Estimated
07:04AM 35.0992 137.1008 258° West  Level Estimated
07:05AM 35.0774 136.9805 258° West  Level Estimated
07:06AM 35.0554 136.8603 257° West  Level Estimated
07:07AM 35.0333 136.7402 257° West  Level Estimated
07:08AM 35.0111 136.6201 257° West  Level Estimated
07:09AM 34.9888 136.5001 257° West  Level Estimated
07:10AM 34.9663 136.3802 257° West  Level Estimated
07:11AM 34.9438 136.2603 257° West  Level Estimated
07:12AM 34.9211 136.1405 257° West  Level Estimated
07:13AM 34.9011 136.0354 257° West  Level Estimated
07:14AM 34.8810 135.9303 257° West  Level Estimated
07:15AM 34.8608 135.8252 257° West  Level Estimated
07:16AM 34.8405 135.7203 257° West  Level Estimated
07:17AM 34.8201 135.6153 257° West  Level Estimated
07:18AM 34.7997 135.5105 257° West  Level Estimated
07:19AM 34.7855 135.4382 257° West  Level Estimated
07:20AM 34.7855 135.4382 141° Southeast  Level Estimated
07:21AM 34.7855 135.4382 141° Southeast  Level Estimated
07:22AM 34.7855 135.4382 141° Southeast  Level Estimated
07:23AM 34.7855 135.4382 141° Southeast  Level Estimated
07:24AM 34.7855 135.4382 141° Southeast  Level Estimated
07:25AM 34.7855 135.4382 141° Southeast  Level Estimated
07:26AM 34.7855 135.4382 141° Southeast  Level Estimated
07:27AM 34.7855 135.4382 141° Southeast  Level Estimated
07:28AM 34.7855 135.4382 141° Southeast  Level Estimated
07:29AM 34.7855 135.4382 141° Southeast  Level Estimated
07:30AM 34.7855 135.4382 141° Southeast  Level Estimated
07:31AM 34.7855 135.4382 141° Southeast  Level Estimated
07:32AM 34.7855 135.4382 141° Southeast  Level Estimated
07:33AM 34.7855 135.4382 141° Southeast  Level Estimated
07:34AM 34.7855 135.4382 141° Southeast  Level Estimated
07:35AM 34.7855 135.4382 141° Southeast  Level Estimated